Time;durP1;ratioP1;P1;durP2;ratioP2;P2;SDS_P1;SDS_P2;PMS_P1;PMS_P2;Temp;Humidity;BMP_temperature;BMP_pressure;BME280_temperature;BME280_humidity;BME280_pressure;Samples;Min_cycle;Max_cycle;Signal;HPM_P1;HPM_P2
2024/03/22 00:01:49;;;;;;;24.30;18.52;;;10.50;99.90;;;;;;5057314;28;20218;-74
2024/03/22 00:04:16;;;;;;;23.90;17.63;;;10.60;99.90;;;;;;5056352;28;20209;-75
2024/03/22 00:06:44;;;;;;;25.33;17.73;;;10.70;99.90;;;;;;5053676;28;20220;-77
2024/03/22 00:09:10;;;;;;;24.42;19.92;;;10.70;99.90;;;;;;5053175;28;20204;-77
2024/03/22 00:11:41;;;;;;;23.88;18.42;;;10.80;99.90;;;;;;5053162;28;20232;-75
2024/03/22 00:14:07;;;;;;;31.45;20.45;;;10.70;99.90;;;;;;5052766;28;20564;-77
2024/03/22 00:16:34;;;;;;;28.90;20.23;;;10.80;99.90;;;;;;5053303;28;20302;-74
2024/03/22 00:19:01;;;;;;;32.05;22.80;;;10.70;99.90;;;;;;5053738;28;20209;-76
2024/03/22 00:21:29;;;;;;;29.45;21.02;;;10.60;99.90;;;;;;5052822;28;20317;-76
2024/03/22 00:23:55;;;;;;;33.50;23.00;;;10.60;99.90;;;;;;5050043;28;20211;-76
2024/03/22 00:26:22;;;;;;;26.98;21.02;;;10.60;99.90;;;;;;5038317;28;20234;-74
2024/03/22 00:28:49;;;;;;;33.22;21.30;;;10.60;99.90;;;;;;5052445;28;20204;-77
2024/03/22 00:31:17;;;;;;;37.20;25.02;;;10.50;99.90;;;;;;5051923;28;20200;-76
2024/03/22 00:33:43;;;;;;;38.42;24.58;;;10.50;99.90;;;;;;5053468;28;20208;-74
2024/03/22 00:36:11;;;;;;;32.30;24.00;;;10.50;99.90;;;;;;5059344;28;20306;-76
2024/03/22 00:38:37;;;;;;;29.95;22.88;;;10.50;99.90;;;;;;5057607;28;20413;-74
2024/03/22 00:41:04;;;;;;;29.45;24.05;;;10.60;99.90;;;;;;5051496;28;20220;-76
2024/03/22 00:43:30;;;;;;;32.45;23.83;;;10.60;99.90;;;;;;5052351;28;20625;-75
2024/03/22 00:45:58;;;;;;;38.93;22.30;;;10.60;99.90;;;;;;5048812;28;20219;-74
2024/03/22 00:48:24;;;;;;;34.92;27.65;;;10.60;99.90;;;;;;5057971;28;20442;-76
2024/03/22 00:50:51;;;;;;;35.00;24.30;;;10.60;99.90;;;;;;5051016;28;20211;-75
2024/03/22 00:53:18;;;;;;;41.30;26.48;;;10.60;99.90;;;;;;5052573;28;20224;-76
2024/03/22 00:55:46;;;;;;;34.60;24.48;;;10.70;99.90;;;;;;5046054;28;20225;-76
2024/03/22 00:58:12;;;;;;;36.75;25.60;;;10.80;99.90;;;;;;5052456;28;20551;-76
2024/03/22 01:00:40;;;;;;;36.67;26.83;;;10.80;99.90;;;;;;5053769;28;20708;-75
2024/03/22 01:03:08;;;;;;;32.78;27.38;;;10.80;99.90;;;;;;5045586;28;20200;-76
2024/03/22 01:05:35;;;;;;;36.85;25.92;;;10.80;99.90;;;;;;5052573;28;20224;-76
2024/03/22 01:08:01;;;;;;;38.80;28.83;;;10.70;99.90;;;;;;5052766;28;20216;-76
2024/03/22 01:10:29;;;;;;;40.28;29.45;;;10.80;99.90;;;;;;5053071;28;20213;-77
2024/03/22 01:12:54;;;;;;;38.67;27.80;;;10.80;99.90;;;;;;5056187;28;20204;-76
2024/03/22 01:15:23;;;;;;;38.70;27.83;;;10.80;99.90;;;;;;5057962;28;20278;-74
2024/03/22 01:17:49;;;;;;;38.47;27.50;;;10.80;99.90;;;;;;5048724;28;20474;-75
2024/03/22 01:20:17;;;;;;;39.42;28.05;;;10.80;99.90;;;;;;5051104;28;20259;-76
2024/03/22 01:22:43;;;;;;;48.45;28.58;;;10.70;99.90;;;;;;5056547;28;20211;-75
2024/03/22 01:25:10;;;;;;;43.60;29.10;;;10.80;99.90;;;;;;5044984;28;20204;-76
2024/03/22 01:27:36;;;;;;;37.17;26.27;;;10.80;99.90;;;;;;5060006;28;20262;-76
2024/03/22 01:30:05;;;;;;;41.40;29.55;;;10.90;99.90;;;;;;5058368;28;20208;-76
2024/03/22 01:32:31;;;;;;;45.10;32.60;;;10.90;99.90;;;;;;5059152;28;20252;-76
2024/03/22 01:34:58;;;;;;;47.47;34.20;;;10.90;99.90;;;;;;5075717;28;20207;-76
2024/03/22 01:37:26;;;;;;;44.97;32.65;;;10.90;99.90;;;;;;5074545;28;20443;-76
2024/03/22 01:39:53;;;;;;;45.38;32.40;;;10.90;99.90;;;;;;5065527;28;20204;-76
2024/03/22 01:42:19;;;;;;;45.83;30.95;;;10.90;99.90;;;;;;5064668;28;20216;-79
2024/03/22 01:44:46;;;;;;;42.13;30.53;;;10.90;99.90;;;;;;5055952;28;20196;-77
2024/03/22 01:47:12;;;;;;;41.92;31.33;;;10.90;99.90;;;;;;5051278;28;20481;-76
2024/03/22 01:49:39;;;;;;;40.00;32.05;;;10.90;99.90;;;;;;5047860;28;20200;-74
2024/03/22 01:52:06;;;;;;;41.42;29.40;;;11.00;99.90;;;;;;5059815;28;20277;-76
2024/03/22 01:54:34;;;;;;;44.70;30.10;;;10.90;99.90;;;;;;5052448;28;20249;-75
2024/03/22 01:57:01;;;;;;;52.25;34.42;;;11.00;99.90;;;;;;5052678;28;20583;-76
2024/03/22 01:59:29;;;;;;;43.05;31.15;;;11.00;99.90;;;;;;5054121;28;20419;-76
2024/03/22 02:01:55;;;;;;;47.65;33.08;;;11.00;99.90;;;;;;5045090;28;20255;-76
2024/03/22 02:04:23;;;;;;;46.83;32.63;;;10.90;99.90;;;;;;5049357;28;20231;-77
2024/03/22 02:06:49;;;;;;;45.50;32.40;;;10.90;99.90;;;;;;5043338;28;20225;-73
2024/03/22 02:09:16;;;;;;;48.70;31.63;;;11.00;99.90;;;;;;5052993;28;20281;-76
2024/03/22 02:11:43;;;;;;;52.20;36.70;;;10.90;99.90;;;;;;5047813;28;20589;-75
2024/03/22 02:14:10;;;;;;;48.65;34.25;;;10.90;99.90;;;;;;5044177;28;20205;-75
2024/03/22 02:16:36;;;;;;;50.10;35.05;;;10.90;99.90;;;;;;5051124;28;20333;-77
2024/03/22 02:19:03;;;;;;;45.50;31.80;;;10.80;99.90;;;;;;5039873;28;20228;-74
2024/03/22 02:21:30;;;;;;;52.42;37.92;;;10.80;99.90;;;;;;5049700;28;20980;-76
2024/03/22 02:23:58;;;;;;;47.35;32.15;;;10.80;99.90;;;;;;5055056;28;20554;-75
2024/03/22 02:26:24;;;;;;;50.70;35.15;;;10.70;99.90;;;;;;5054177;28;20224;-75
2024/03/22 02:28:51;;;;;;;51.20;36.33;;;10.80;99.90;;;;;;5053465;28;20705;-76
2024/03/22 02:31:18;;;;;;;50.90;34.92;;;10.80;99.90;;;;;;5053233;28;20968;-77
2024/03/22 02:33:45;;;;;;;57.05;37.50;;;10.90;99.90;;;;;;5048377;28;20247;-76
2024/03/22 02:36:11;;;;;;;50.50;34.63;;;10.90;99.90;;;;;;5044159;28;20228;-77
2024/03/22 02:38:38;;;;;;;47.60;35.30;;;10.90;99.90;;;;;;5053789;28;20200;-77
2024/03/22 02:41:06;;;;;;;51.45;37.58;;;10.90;99.90;;;;;;5049154;28;20823;-76
2024/03/22 02:43:33;;;;;;;55.53;37.63;;;10.90;99.90;;;;;;5051336;28;20561;-77
2024/03/22 02:45:59;;;;;;;53.58;36.17;;;10.90;99.90;;;;;;5041375;28;20220;-75
2024/03/22 02:48:28;;;;;;;51.70;35.50;;;10.90;99.90;;;;;;5050925;28;20607;-75
2024/03/22 02:50:55;;;;;;;54.42;36.50;;;10.90;99.90;;;;;;5053269;28;20543;-77
2024/03/22 02:53:22;;;;;;;56.80;38.45;;;10.90;99.90;;;;;;5046980;28;20200;-76
2024/03/22 02:55:48;;;;;;;51.83;36.17;;;10.90;99.90;;;;;;5049696;28;20635;-75
2024/03/22 02:58:22;;;;;;;57.08;38.38;;;10.90;99.90;;;;;;5048379;28;20246;-74
2024/03/22 03:00:48;;;;;;;56.25;36.42;;;10.90;99.90;;;;;;5053379;28;20281;-75
2024/03/22 03:03:15;;;;;;;59.33;39.07;;;10.90;99.90;;;;;;5057001;28;20196;-75
2024/03/22 03:05:42;;;;;;;57.03;37.90;;;10.90;99.90;;;;;;5056208;28;20475;-75
2024/03/22 03:08:09;;;;;;;60.60;39.05;;;10.90;99.90;;;;;;5053630;28;20235;-75
2024/03/22 03:10:35;;;;;;;58.45;39.67;;;10.90;99.90;;;;;;5049732;28;20204;-76
2024/03/22 03:13:02;;;;;;;59.00;38.58;;;10.90;99.90;;;;;;5042493;28;20224;-75
2024/03/22 03:15:30;;;;;;;60.88;36.75;;;11.00;99.90;;;;;;5049210;28;20229;-77
2024/03/22 03:17:57;;;;;;;55.22;37.90;;;11.00;99.90;;;;;;5049852;28;20204;-75
2024/03/22 03:20:23;;;;;;;57.40;39.85;;;10.90;99.90;;;;;;5052661;28;20220;-75
2024/03/22 03:22:50;;;;;;;72.50;41.33;;;11.00;99.90;;;;;;5053792;28;20558;-75
2024/03/22 03:25:16;;;;;;;53.55;39.83;;;11.00;99.90;;;;;;5052811;28;20471;-75
2024/03/22 03:27:43;;;;;;;55.92;36.03;;;11.00;99.90;;;;;;5046261;28;20318;-77
2024/03/22 03:30:09;;;;;;;61.28;38.90;;;11.00;99.90;;;;;;5052476;28;20731;-76
2024/03/22 03:32:37;;;;;;;54.42;35.50;;;11.00;99.90;;;;;;5053092;28;20196;-75
2024/03/22 03:35:05;;;;;;;61.10;39.17;;;11.10;99.90;;;;;;5047930;28;20208;-78
2024/03/22 03:37:32;;;;;;;62.35;37.70;;;11.10;99.90;;;;;;5050060;28;20678;-76
2024/03/22 03:39:58;;;;;;;69.38;40.90;;;11.10;99.90;;;;;;5053163;28;20212;-77
2024/03/22 03:42:25;;;;;;;62.80;40.90;;;11.10;99.90;;;;;;5048014;28;20239;-76
2024/03/22 03:44:51;;;;;;;63.65;40.60;;;11.10;99.90;;;;;;5046379;28;20454;-77
2024/03/22 03:47:18;;;;;;;57.10;37.20;;;11.10;99.90;;;;;;5048285;28;20562;-77
2024/03/22 06:31:56;;;;;;;74.35;42.47;;;11.90;99.90;;;;;;5052871;28;20234;-88
2024/03/22 06:35:09;;;;;;;67.38;43.33;;;11.80;99.90;;;;;;5061919;28;20260;-87
2024/03/22 07:01:32;;;;;;;77.88;47.20;;;11.80;99.90;;;;;;4987136;28;20237;-88
2024/03/22 07:10:54;;;;;;;85.47;48.58;;;11.60;99.90;;;;;;4907511;29;20305;-85
2024/03/22 07:13:26;;;;;;;94.57;48.30;;;11.70;99.90;;;;;;4975152;28;20241;-88
2024/03/22 07:19:37;;;;;;;98.63;49.92;;;11.70;99.90;;;;;;4955712;28;20284;-88
2024/03/22 07:22:08;;;;;;;91.85;50.97;;;11.70;99.90;;;;;;4981076;28;20241;-84
2024/03/22 07:24:35;;;;;;;85.72;48.03;;;11.70;99.90;;;;;;4999585;28;20198;-87
2024/03/22 07:27:01;;;;;;;102.30;53.42;;;11.60;99.90;;;;;;4995706;28;20637;-85
2024/03/22 07:29:31;;;;;;;94.78;51.13;;;11.70;99.90;;;;;;4994874;28;20218;-87
2024/03/22 07:31:57;;;;;;;100.57;54.40;;;11.70;99.90;;;;;;5058998;28;20294;-86
2024/03/22 07:34:24;;;;;;;98.22;51.40;;;11.70;99.90;;;;;;5056515;28;20269;-87
2024/03/22 07:36:51;;;;;;;89.13;51.35;;;11.70;99.90;;;;;;5054526;28;20204;-85
2024/03/22 07:39:21;;;;;;;99.97;55.90;;;11.70;99.90;;;;;;5056204;28;20246;-88
2024/03/22 07:41:47;;;;;;;104.25;52.28;;;11.70;99.90;;;;;;5057058;28;20239;-88
2024/03/22 07:44:14;;;;;;;92.72;50.60;;;11.80;99.90;;;;;;5061101;28;20222;-89
2024/03/22 07:46:40;;;;;;;98.45;50.63;;;11.80;99.90;;;;;;5055741;28;20212;-88
2024/03/22 07:49:07;;;;;;;97.77;52.60;;;11.70;99.90;;;;;;5055623;28;20629;-88
2024/03/22 07:51:33;;;;;;;94.25;49.13;;;11.70;99.90;;;;;;5057794;28;20458;-88
2024/03/22 07:54:02;;;;;;;119.85;58.38;;;11.80;99.90;;;;;;5056503;28;20204;-88
2024/03/22 07:56:28;;;;;;;116.60;59.30;;;11.80;99.90;;;;;;5059166;28;20303;-89
2024/03/22 07:58:55;;;;;;;109.47;54.67;;;11.70;99.90;;;;;;5055785;28;20215;-89
2024/03/22 08:01:21;;;;;;;103.90;55.92;;;11.70;99.90;;;;;;5061154;28;20334;-89
2024/03/22 08:03:48;;;;;;;96.37;54.70;;;11.70;99.90;;;;;;5055212;28;20236;-86
2024/03/22 08:06:15;;;;;;;118.30;62.72;;;11.70;99.90;;;;;;5055660;28;20447;-87
2024/03/22 08:08:42;;;;;;;98.65;54.15;;;11.70;99.90;;;;;;5056617;28;20254;-85
2024/03/22 08:11:10;;;;;;;123.40;60.30;;;11.70;99.90;;;;;;5054312;28;20200;-90
2024/03/22 08:13:37;;;;;;;106.93;57.47;;;11.70;99.90;;;;;;5054866;28;20196;-89
2024/03/22 08:16:04;;;;;;;105.88;54.35;;;11.80;99.90;;;;;;5055952;28;20211;-89
2024/03/22 08:18:32;;;;;;;95.68;51.33;;;11.80;99.90;;;;;;5063273;28;20192;-86
2024/03/22 08:20:59;;;;;;;97.25;51.55;;;11.70;99.90;;;;;;5079158;28;20274;-88
2024/03/22 08:23:26;;;;;;;110.47;61.20;;;11.70;99.90;;;;;;5080127;28;20200;-90
2024/03/22 08:25:52;;;;;;;95.80;52.15;;;11.80;99.90;;;;;;5073385;28;20199;-88
2024/03/22 08:28:20;;;;;;;100.55;53.80;;;11.80;99.90;;;;;;5056467;28;20209;-90
2024/03/22 08:30:46;;;;;;;92.50;51.33;;;11.80;99.90;;;;;;5056978;28;20220;-87
2024/03/22 08:33:13;;;;;;;92.53;53.33;;;11.80;99.90;;;;;;5056369;28;20258;-89
2024/03/22 08:35:39;;;;;;;82.30;48.53;;;11.90;99.90;;;;;;5060263;28;20512;-88
2024/03/22 08:38:09;;;;;;;83.38;48.45;;;11.90;99.90;;;;;;5063307;28;20204;-88
2024/03/22 08:40:36;;;;;;;97.13;51.85;;;11.90;99.90;;;;;;5062002;28;20271;-89
2024/03/22 08:43:04;;;;;;;93.18;51.85;;;11.90;99.90;;;;;;5060976;28;20254;-90
2024/03/22 08:45:31;;;;;;;71.90;46.33;;;11.90;99.90;;;;;;5061125;28;20209;-88
2024/03/22 08:47:58;;;;;;;78.25;47.17;;;12.00;99.90;;;;;;5062510;28;20662;-89
2024/03/22 08:50:25;;;;;;;76.18;46.83;;;12.00;99.90;;;;;;5059497;28;20238;-90
2024/03/22 08:52:52;;;;;;;86.63;49.60;;;12.00;99.90;;;;;;5066798;28;20184;-89
2024/03/22 08:55:18;;;;;;;72.13;44.25;;;12.10;99.90;;;;;;5080219;28;20187;-88
2024/03/22 08:57:45;;;;;;;86.03;50.10;;;12.10;99.90;;;;;;5079821;28;20195;-91
2024/03/22 09:00:12;;;;;;;78.25;48.78;;;12.10;99.90;;;;;;5079826;28;20208;-90
2024/03/22 09:02:41;;;;;;;77.85;47.22;;;12.10;99.90;;;;;;5079807;28;20215;-90
2024/03/22 09:05:08;;;;;;;84.25;47.08;;;12.00;99.90;;;;;;5079355;28;20207;-88
2024/03/22 09:07:35;;;;;;;71.35;43.13;;;12.00;99.90;;;;;;5086015;28;20176;-88
2024/03/22 09:10:02;;;;;;;76.30;45.17;;;12.10;99.90;;;;;;5074412;28;20224;-90
2024/03/22 09:12:28;;;;;;;66.03;44.05;;;12.10;99.90;;;;;;5059991;28;20216;-88
2024/03/22 09:14:55;;;;;;;67.43;45.70;;;12.10;99.90;;;;;;5059940;28;20220;-88
2024/03/22 09:17:21;;;;;;;67.38;44.70;;;12.10;99.90;;;;;;5062703;28;20816;-89
2024/03/22 09:19:49;;;;;;;76.28;44.40;;;12.10;99.90;;;;;;5064472;28;20215;-88
2024/03/22 09:22:15;;;;;;;65.15;42.13;;;12.00;99.90;;;;;;5063690;28;20215;-89
2024/03/22 09:24:42;;;;;;;61.55;40.00;;;12.20;99.90;;;;;;5060707;28;20211;-89
2024/03/22 09:27:10;;;;;;;59.47;42.60;;;12.30;99.90;;;;;;5061346;28;20208;-90
2024/03/22 09:29:37;;;;;;;59.53;38.13;;;12.30;99.90;;;;;;5056766;28;20227;-89
2024/03/22 09:32:04;;;;;;;63.78;41.38;;;12.20;99.90;;;;;;5061061;28;20662;-89
2024/03/22 09:34:31;;;;;;;60.50;37.30;;;12.20;99.90;;;;;;5060046;28;20204;-90
2024/03/22 09:36:58;;;;;;;49.97;36.00;;;12.20;99.90;;;;;;5061546;28;20281;-89
2024/03/22 09:39:27;;;;;;;70.30;42.72;;;12.10;99.90;;;;;;5061332;28;20261;-89
2024/03/22 09:41:56;;;;;;;62.55;38.17;;;12.10;99.90;;;;;;5064317;28;20228;-88
2024/03/22 09:44:24;;;;;;;64.00;36.58;;;12.10;99.90;;;;;;5060193;28;20196;-90
2024/03/22 09:46:51;;;;;;;66.50;38.63;;;12.10;99.90;;;;;;5056013;28;20219;-89
2024/03/22 09:49:19;;;;;;;58.03;37.00;;;12.10;99.90;;;;;;5090439;22;20231;-84
2024/03/22 09:51:49;;;;;;;60.72;39.28;;;12.10;99.90;;;;;;5090246;28;20214;-82
2024/03/22 09:54:17;;;;;;;62.05;39.17;;;12.10;99.90;;;;;;5079229;28;20207;-82
2024/03/22 09:56:46;;;;;;;54.58;37.83;;;12.10;99.90;;;;;;5093005;28;20208;-85
2024/03/22 09:59:13;;;;;;;52.20;34.60;;;12.20;99.90;;;;;;5096819;28;20219;-83
2024/03/22 10:01:41;;;;;;;52.60;32.65;;;12.30;99.90;;;;;;5108542;28;20288;-83
2024/03/22 10:04:09;;;;;;;59.03;35.85;;;12.30;99.90;;;;;;5101056;28;20194;-84
2024/03/22 10:06:35;;;;;;;63.42;35.72;;;12.30;99.90;;;;;;5098802;28;20209;-84
2024/03/22 10:09:04;;;;;;;62.50;37.40;;;12.30;99.90;;;;;;5109814;28;20222;-82
2024/03/22 10:11:31;;;;;;;65.18;39.50;;;12.20;99.90;;;;;;5114380;28;20449;-82
2024/03/22 10:14:02;;;;;;;61.10;36.75;;;12.10;99.90;;;;;;5103672;28;20203;-83
2024/03/22 10:16:34;;;;;;;65.53;40.88;;;11.90;99.90;;;;;;5102643;28;20293;-83
2024/03/22 10:19:01;;;;;;;65.03;38.45;;;11.90;99.90;;;;;;5109740;28;20199;-82
2024/03/22 10:21:28;;;;;;;45.33;29.52;;;11.90;99.90;;;;;;5091357;28;20214;-82
2024/03/22 10:23:55;;;;;;;53.58;35.35;;;11.90;99.90;;;;;;5099663;28;20205;-83
2024/03/22 10:26:21;;;;;;;51.13;32.50;;;11.90;99.90;;;;;;5097413;28;20221;-83
2024/03/22 10:28:50;;;;;;;51.03;32.47;;;11.90;99.90;;;;;;5093716;28;20350;-84
2024/03/22 10:31:16;;;;;;;49.92;31.40;;;11.90;99.90;;;;;;5116550;27;20466;-85
2024/03/22 10:33:45;;;;;;;39.27;26.30;;;11.90;99.90;;;;;;5112390;28;20200;-84
2024/03/22 10:36:12;;;;;;;32.25;24.08;;;12.00;99.90;;;;;;5113617;28;20439;-84
2024/03/22 10:38:40;;;;;;;34.05;23.98;;;12.10;99.90;;;;;;5088980;28;20215;-84
2024/03/22 10:41:06;;;;;;;36.00;23.85;;;12.20;99.90;;;;;;5096267;28;20219;-83
2024/03/22 10:43:33;;;;;;;31.55;22.33;;;12.30;99.90;;;;;;5111846;28;20220;-84
2024/03/22 10:46:03;;;;;;;28.58;20.65;;;12.30;99.90;;;;;;5101938;28;20214;-83
2024/03/22 10:48:31;;;;;;;28.88;21.35;;;12.50;99.90;;;;;;5114377;28;20199;-83
2024/03/22 10:51:00;;;;;;;28.73;20.27;;;12.50;99.90;;;;;;5106781;28;20238;-83
2024/03/22 10:53:29;;;;;;;30.45;20.98;;;12.40;99.90;;;;;;5094405;28;20199;-82
2024/03/22 10:55:59;;;;;;;30.10;20.70;;;12.20;99.90;;;;;;5101236;28;20257;-84
2024/03/22 10:58:26;;;;;;;38.60;26.02;;;12.10;99.90;;;;;;5100467;28;20209;-84
2024/03/22 11:00:53;;;;;;;32.03;22.58;;;12.10;99.90;;;;;;5094527;28;20231;-84
2024/03/22 11:03:23;;;;;;;29.38;21.50;;;12.10;99.90;;;;;;5102955;28;20210;-82
2024/03/22 11:05:50;;;;;;;36.30;19.38;;;12.20;99.90;;;;;;5100511;28;20240;-83
2024/03/22 11:08:25;;;;;;;35.30;21.45;;;12.20;99.90;;;;;;5099234;28;20202;-84
2024/03/22 11:10:51;;;;;;;33.97;20.55;;;12.20;99.90;;;;;;5102906;28;20415;-83
2024/03/22 11:13:19;;;;;;;36.63;25.38;;;12.20;99.90;;;;;;5103589;28;20199;-83
2024/03/22 11:15:47;;;;;;;45.78;29.17;;;12.20;99.90;;;;;;5098392;28;20210;-84
2024/03/22 11:18:15;;;;;;;35.40;26.95;;;12.20;99.90;;;;;;5104970;28;20232;-83
2024/03/22 11:20:42;;;;;;;47.70;27.38;;;12.20;99.90;;;;;;5092279;28;20271;-84
2024/03/22 11:23:10;;;;;;;42.75;27.65;;;12.30;99.90;;;;;;5091613;28;20242;-83
2024/03/22 11:25:36;;;;;;;44.60;26.90;;;12.20;99.90;;;;;;5100960;28;20210;-83
2024/03/22 11:28:04;;;;;;;39.60;26.43;;;12.00;99.90;;;;;;5101215;28;20199;-83
2024/03/22 11:30:55;;;;;;;36.45;24.13;;;12.00;99.90;;;;;;5117925;28;20453;-82
2024/03/22 11:33:22;;;;;;;34.97;23.40;;;12.00;99.90;;;;;;5105987;28;20267;-83
2024/03/22 11:35:49;;;;;;;33.35;23.92;;;12.10;99.90;;;;;;5105886;28;20234;-84
2024/03/22 11:38:17;;;;;;;31.88;21.30;;;12.10;99.90;;;;;;5112161;28;20210;-82
2024/03/22 11:40:43;;;;;;;36.58;23.70;;;12.10;99.90;;;;;;5101835;28;20238;-84
2024/03/22 11:43:13;;;;;;;34.00;22.90;;;12.10;99.90;;;;;;5103842;28;20226;-82
2024/03/22 11:45:40;;;;;;;30.92;22.70;;;12.10;99.90;;;;;;5095216;28;20198;-85
2024/03/22 11:48:08;;;;;;;32.58;22.73;;;12.10;99.90;;;;;;5104688;28;20199;-84
2024/03/22 11:50:34;;;;;;;32.45;23.77;;;12.10;99.90;;;;;;5116424;28;20225;-83
2024/03/22 11:53:03;;;;;;;30.98;20.17;;;12.10;99.90;;;;;;5104319;28;20286;-84
2024/03/22 11:55:29;;;;;;;26.10;19.30;;;12.10;99.90;;;;;;5109354;28;20211;-84
2024/03/22 11:57:58;;;;;;;30.10;21.13;;;12.10;99.90;;;;;;5111306;28;20233;-83
2024/03/22 12:00:25;;;;;;;33.50;20.63;;;12.10;99.90;;;;;;5112292;28;20232;-83
2024/03/22 12:02:53;;;;;;;31.70;21.17;;;12.00;99.90;;;;;;5115924;28;20221;-83
2024/03/22 12:05:20;;;;;;;26.35;19.63;;;12.10;99.90;;;;;;5110505;28;20201;-84
2024/03/22 12:07:48;;;;;;;31.23;20.88;;;12.00;99.90;;;;;;5094289;28;20228;-84
2024/03/22 12:10:15;;;;;;;31.05;21.08;;;12.00;99.90;;;;;;5105900;28;20219;-83
2024/03/22 12:12:42;;;;;;;27.95;21.15;;;12.00;99.90;;;;;;5098909;28;20206;-84
2024/03/22 12:15:08;;;;;;;30.77;20.95;;;12.10;99.90;;;;;;5104021;28;20199;-82
2024/03/22 12:17:35;;;;;;;30.60;22.70;;;12.10;99.90;;;;;;5104893;28;20199;-83
2024/03/22 12:20:03;;;;;;;29.25;20.80;;;12.10;99.90;;;;;;5097330;28;20231;-84
2024/03/22 12:22:30;;;;;;;22.88;17.08;;;12.00;99.90;;;;;;5093253;28;20202;-82
2024/03/22 12:24:57;;;;;;;37.33;22.15;;;12.00;99.90;;;;;;5092076;28;20203;-83
2024/03/22 12:27:25;;;;;;;23.05;18.77;;;12.00;99.90;;;;;;5090115;28;20203;-83
2024/03/22 12:29:51;;;;;;;24.77;18.00;;;12.00;99.90;;;;;;5099907;28;20226;-84
2024/03/22 12:32:18;;;;;;;25.37;19.90;;;12.00;99.90;;;;;;5095631;28;20194;-82
2024/03/22 12:34:44;;;;;;;26.95;20.63;;;12.00;99.90;;;;;;5088026;28;20892;-83
2024/03/22 12:37:11;;;;;;;17.98;14.68;;;12.00;99.90;;;;;;5094245;28;20208;-83
2024/03/22 12:39:37;;;;;;;22.75;15.55;;;12.10;99.90;;;;;;5091233;28;20227;-83
2024/03/22 12:42:05;;;;;;;17.67;14.47;;;12.10;99.90;;;;;;5096449;28;20280;-83
2024/03/22 12:44:33;;;;;;;23.60;15.65;;;12.20;99.90;;;;;;5100141;28;20488;-83
2024/03/22 12:47:00;;;;;;;21.98;15.93;;;12.10;99.90;;;;;;5094655;28;20207;-84
2024/03/22 12:49:26;;;;;;;15.23;12.73;;;12.10;99.90;;;;;;5103978;28;20681;-82
2024/03/22 12:51:53;;;;;;;18.42;15.75;;;12.10;99.90;;;;;;5108144;28;20191;-84
2024/03/22 12:54:20;;;;;;;19.38;14.75;;;12.10;99.90;;;;;;5109161;28;20488;-83
2024/03/22 12:56:46;;;;;;;18.20;14.40;;;12.10;99.90;;;;;;5108804;28;20202;-83
2024/03/22 12:59:13;;;;;;;20.45;15.30;;;12.20;99.90;;;;;;5106553;28;20305;-83
2024/03/22 13:01:40;;;;;;;15.70;12.32;;;12.20;99.90;;;;;;5111478;28;20233;-83
2024/03/22 13:04:07;;;;;;;17.30;13.23;;;12.20;99.90;;;;;;5113742;28;20205;-84
2024/03/22 13:06:34;;;;;;;13.65;11.80;;;12.20;99.90;;;;;;5109436;28;20210;-82
2024/03/22 13:09:01;;;;;;;14.10;10.18;;;12.20;99.90;;;;;;5113634;28;20179;-83
2024/03/22 13:11:27;;;;;;;12.57;10.55;;;12.20;99.90;;;;;;5100858;28;20191;-83
2024/03/22 13:13:54;;;;;;;11.60;10.27;;;12.20;99.90;;;;;;5113491;28;20229;-84
2024/03/22 13:16:20;;;;;;;13.13;10.75;;;12.20;99.90;;;;;;5096196;28;20448;-84
2024/03/22 13:18:48;;;;;;;14.07;10.10;;;12.30;99.90;;;;;;5111165;28;20202;-83
2024/03/22 13:21:14;;;;;;;10.88;9.25;;;12.20;99.90;;;;;;5115078;28;20417;-84
2024/03/22 13:23:41;;;;;;;11.63;10.43;;;12.20;99.90;;;;;;5114631;28;20223;-84
2024/03/22 13:26:07;;;;;;;13.10;10.95;;;12.10;99.90;;;;;;5108785;28;20445;-83
2024/03/22 13:28:34;;;;;;;14.83;10.90;;;12.10;99.90;;;;;;5105468;28;20257;-83
2024/03/22 13:31:02;;;;;;;11.18;8.52;;;12.10;99.90;;;;;;5105735;28;20468;-83
2024/03/22 13:33:29;;;;;;;10.55;7.65;;;12.10;99.90;;;;;;5101447;28;20214;-84
2024/03/22 13:35:57;;;;;;;10.77;8.63;;;12.30;99.90;;;;;;5098491;28;20476;-82
2024/03/22 13:38:24;;;;;;;11.38;9.95;;;12.30;99.90;;;;;;5102958;28;20739;-82
2024/03/22 13:40:53;;;;;;;8.02;6.75;;;12.30;99.90;;;;;;5095624;28;20236;-83
2024/03/22 13:43:20;;;;;;;8.07;7.32;;;12.50;99.90;;;;;;5103728;28;20234;-82
2024/03/22 13:45:49;;;;;;;9.15;6.70;;;12.50;99.90;;;;;;5100865;28;20195;-81
2024/03/22 13:48:16;;;;;;;8.93;8.02;;;12.40;99.90;;;;;;5100732;28;20229;-80
2024/03/22 13:50:42;;;;;;;10.38;8.90;;;12.50;99.90;;;;;;5100274;28;20319;-82
2024/03/22 13:53:10;;;;;;;8.50;7.33;;;12.50;99.90;;;;;;5103579;28;20203;-80
2024/03/22 13:55:36;;;;;;;7.95;7.15;;;12.60;99.90;;;;;;5102393;28;20461;-80
2024/03/22 13:58:03;;;;;;;10.87;7.57;;;12.70;99.90;;;;;;5097882;28;20202;-81
2024/03/22 14:00:29;;;;;;;7.60;6.80;;;12.80;99.90;;;;;;5103401;28;20468;-82
2024/03/22 14:02:56;;;;;;;10.55;7.15;;;12.80;99.90;;;;;;5105255;28;20287;-81
2024/03/22 14:05:24;;;;;;;7.35;6.60;;;12.50;99.90;;;;;;5104177;28;20241;-81
2024/03/22 14:07:51;;;;;;;7.47;6.75;;;12.40;99.90;;;;;;5105109;28;20198;-82
2024/03/22 14:10:18;;;;;;;7.18;6.18;;;12.40;99.90;;;;;;5099393;28;20220;-81
2024/03/22 14:12:47;;;;;;;8.13;7.00;;;12.40;99.90;;;;;;5099850;28;20233;-80
2024/03/22 14:15:13;;;;;;;7.75;6.68;;;12.50;99.90;;;;;;5105425;28;20238;-81
2024/03/22 14:17:40;;;;;;;7.70;6.38;;;12.50;99.90;;;;;;5095771;28;20247;-81
2024/03/22 14:20:11;;;;;;;7.97;6.53;;;12.50;99.90;;;;;;5105847;28;20524;-82
2024/03/22 14:22:40;;;;;;;8.23;5.85;;;12.40;99.90;;;;;;5100761;28;20261;-80
2024/03/22 14:25:08;;;;;;;8.82;7.75;;;12.40;99.90;;;;;;5099911;28;20213;-82
2024/03/22 14:27:35;;;;;;;8.25;6.40;;;12.50;99.90;;;;;;5094869;28;20218;-82
2024/03/22 14:30:05;;;;;;;9.18;5.78;;;12.60;99.90;;;;;;5115723;28;20236;-81
2024/03/22 14:32:31;;;;;;;6.82;4.55;;;12.70;99.90;;;;;;5114525;28;20213;-80
2024/03/22 14:34:58;;;;;;;4.47;3.88;;;12.90;99.90;;;;;;5114589;28;20271;-81
2024/03/22 14:37:24;;;;;;;5.45;4.63;;;12.90;99.90;;;;;;5107881;28;20202;-81
2024/03/22 14:39:51;;;;;;;2.73;2.53;;;13.00;99.90;;;;;;5105430;28;20219;-81
2024/03/22 14:42:17;;;;;;;4.75;3.35;;;13.10;99.90;;;;;;5103775;28;20477;-81
2024/03/22 14:44:46;;;;;;;4.10;3.70;;;13.10;99.90;;;;;;5110311;28;20199;-80
2024/03/22 14:47:12;;;;;;;3.10;2.80;;;13.20;99.90;;;;;;5100883;28;20641;-80
2024/03/22 14:49:39;;;;;;;2.67;2.47;;;13.10;99.90;;;;;;5105089;28;20233;-81
2024/03/22 14:52:06;;;;;;;4.05;3.20;;;13.00;99.90;;;;;;5105152;28;20444;-82
2024/03/22 14:54:33;;;;;;;7.13;3.30;;;12.70;99.90;;;;;;5102069;28;20194;-82
2024/03/22 14:56:59;;;;;;;2.90;2.60;;;12.80;99.90;;;;;;5095994;28;20206;-82
2024/03/22 14:59:28;;;;;;;6.50;2.10;;;12.70;99.90;;;;;;5104967;28;20214;-81
2024/03/22 15:01:57;;;;;;;2.10;1.63;;;12.40;99.90;;;;;;5117149;28;20523;-81
2024/03/22 15:04:24;;;;;;;1.80;1.70;;;12.20;99.90;;;;;;5111920;28;20203;-81
2024/03/22 15:06:50;;;;;;;4.30;2.47;;;12.10;99.90;;;;;;5118315;28;20203;-80
2024/03/22 15:09:18;;;;;;;1.75;1.63;;;12.00;99.90;;;;;;5117765;28;20225;-82
2024/03/22 15:11:44;;;;;;;1.92;1.52;;;12.00;99.90;;;;;;5112922;28;20198;-81
2024/03/22 15:14:11;;;;;;;3.13;2.13;;;11.80;99.90;;;;;;5117229;28;20194;-81
2024/03/22 15:16:38;;;;;;;4.35;2.45;;;11.60;99.90;;;;;;5112118;28;20203;-78
2024/03/22 15:19:06;;;;;;;3.15;1.65;;;11.60;99.90;;;;;;5100512;28;20776;-80
2024/03/22 15:21:32;;;;;;;3.00;1.85;;;11.70;99.90;;;;;;5112097;28;20198;-81
2024/03/22 15:23:59;;;;;;;7.67;2.70;;;11.70;99.90;;;;;;5109185;28;20245;-81
2024/03/22 15:26:25;;;;;;;3.25;2.25;;;11.70;99.90;;;;;;5103320;28;20436;-81
2024/03/22 15:28:52;;;;;;;5.33;2.97;;;11.70;99.90;;;;;;5111204;28;20637;-82
2024/03/22 15:31:18;;;;;;;9.60;2.75;;;11.70;99.90;;;;;;5108009;28;20428;-83
2024/03/22 15:33:46;;;;;;;9.90;3.50;;;11.60;99.90;;;;;;5118218;28;20234;-81
2024/03/22 15:36:16;;;;;;;5.75;3.17;;;11.50;99.90;;;;;;5103708;28;20249;-82
2024/03/22 15:38:45;;;;;;;11.45;4.22;;;11.50;99.90;;;;;;5114425;28;20198;-81
2024/03/22 15:41:11;;;;;;;7.68;2.60;;;11.40;99.90;;;;;;5113887;28;20209;-80
2024/03/22 15:43:38;;;;;;;10.43;3.60;;;11.30;99.90;;;;;;5114422;27;20282;-80
2024/03/22 15:46:05;;;;;;;15.70;6.05;;;11.30;99.90;;;;;;5108824;28;20180;-80
2024/03/22 15:48:32;;;;;;;6.28;4.07;;;11.20;99.90;;;;;;5112333;27;20228;-81